Carroll Plt, Maine
Current Conditions -  °F | °C
As of 7:53 PM on Wednesday 22 Oct 2014 (Local Time) from KMLT Reporting Station
Light Rain Light Rain  
Wind Chill: 40°   Ceiling: 2300
Heat Index: 45°   Visibility: 10mi
Dew Point: 40°   Wind: 9mph
Humidity: 82%   Direction: 50°NE
Pressure: 30.25"   Gusts: NA
Location:  45.3189°N, 68.0613°W
Report Text: KMLT 222353Z AUTO 05008KT 10SM -RA OVC023 07/04 A3025 RMK AO2 RAB06 SLP251 P0001 60008 T00720044 10122 20072 57009
Loading
Personal Weather Stations






























Interactive Weather Map
Tropical Storm Tracking
New forecast layout! Learn more

10-Day Weather Forecast

Advertisements
Track Severe Weather on mobile